sensor_id;sensor_type;location;lat;lon;timestamp;pressure;altitude;pressure_sealevel;temperature;humidity
72438;BME280;60444;43.534;-5.674;2023-04-04T00:00:01;101835.13;;;12.97;100.00
72438;BME280;60444;43.534;-5.674;2023-04-04T00:02:26;101836.47;;;12.87;100.00
72438;BME280;60444;43.534;-5.674;2023-04-04T00:04:52;101844.63;;;12.87;100.00
72438;BME280;60444;43.534;-5.674;2023-04-04T00:07:18;101840.88;;;12.89;100.00
72438;BME280;60444;43.534;-5.674;2023-04-04T00:09:43;101851.41;;;12.97;100.00
72438;BME280;60444;43.534;-5.674;2023-04-04T00:12:09;101842.97;;;12.83;100.00
72438;BME280;60444;43.534;-5.674;2023-04-04T00:14:35;101854.34;;;12.92;100.00
72438;BME280;60444;43.534;-5.674;2023-04-04T00:17:00;101850.66;;;12.93;100.00
72438;BME280;60444;43.534;-5.674;2023-04-04T00:19:26;101838.66;;;12.99;100.00
72438;BME280;60444;43.534;-5.674;2023-04-04T00:21:51;101851.06;;;13.06;100.00
72438;BME280;60444;43.534;-5.674;2023-04-04T00:24:16;101849.31;;;13.05;100.00
72438;BME280;60444;43.534;-5.674;2023-04-04T00:26:42;101842.16;;;13.02;100.00
72438;BME280;60444;43.534;-5.674;2023-04-04T00:29:07;101844.56;;;13.10;100.00
72438;BME280;60444;43.534;-5.674;2023-04-04T00:31:33;101831.34;;;13.01;100.00
72438;BME280;60444;43.534;-5.674;2023-04-04T00:33:59;101844.56;;;13.10;100.00
72438;BME280;60444;43.534;-5.674;2023-04-04T00:36:24;101849.03;;;13.11;100.00
72438;BME280;60444;43.534;-5.674;2023-04-04T00:38:50;101848.19;;;13.09;100.00
72438;BME280;60444;43.534;-5.674;2023-04-04T00:41:16;101858.81;;;13.15;100.00
72438;BME280;60444;43.534;-5.674;2023-04-04T00:43:41;101848.91;;;13.14;100.00
72438;BME280;60444;43.534;-5.674;2023-04-04T00:46:08;101841.16;;;13.05;100.00
72438;BME280;60444;43.534;-5.674;2023-04-04T00:48:35;101845.31;;;13.13;100.00
72438;BME280;60444;43.534;-5.674;2023-04-04T00:51:01;101854.13;;;13.18;100.00
72438;BME280;60444;43.534;-5.674;2023-04-04T00:53:26;101856.03;;;13.16;100.00
72438;BME280;60444;43.534;-5.674;2023-04-04T00:55:52;101854.22;;;13.17;100.00
72438;BME280;60444;43.534;-5.674;2023-04-04T00:58:17;101854.22;;;13.17;100.00
72438;BME280;60444;43.534;-5.674;2023-04-04T01:00:43;101832.03;;;13.06;100.00
72438;BME280;60444;43.534;-5.674;2023-04-04T01:03:09;101852.31;;;13.19;100.00
72438;BME280;60444;43.534;-5.674;2023-04-04T01:05:37;101839.66;;;13.18;100.00
72438;BME280;60444;43.534;-5.674;2023-04-04T01:08:03;101831.88;;;13.10;100.00
72438;BME280;60444;43.534;-5.674;2023-04-04T01:10:32;101858.28;;;13.27;100.00
72438;BME280;60444;43.534;-5.674;2023-04-04T01:12:59;101845.06;;;13.19;100.00
72438;BME280;60444;43.534;-5.674;2023-04-04T01:15:24;101854.78;;;13.25;100.00
72438;BME280;60444;43.534;-5.674;2023-04-04T01:17:52;101856.47;;;13.27;100.00
72438;BME280;60444;43.534;-5.674;2023-04-04T01:20:26;101852.06;;;13.25;100.00
72438;BME280;60444;43.534;-5.674;2023-04-04T01:22:54;101849.13;;;13.29;100.00
72438;BME280;60444;43.534;-5.674;2023-04-04T01:25:28;101822.91;;;13.08;100.00
72438;BME280;60444;43.534;-5.674;2023-04-04T01:27:59;101851.09;;;13.26;100.00
72438;BME280;60444;43.534;-5.674;2023-04-04T01:30:28;101848.69;;;13.18;100.00
72438;BME280;60444;43.534;-5.674;2023-04-04T01:33:03;101850.41;;;13.21;100.00
72438;BME280;60444;43.534;-5.674;2023-04-04T01:39:04;101857.75;;;13.19;100.00
72438;BME280;60444;43.534;-5.674;2023-04-04T01:41:33;101847.78;;;13.19;100.00
72438;BME280;60444;43.534;-5.674;2023-04-04T01:43:59;101844.00;;;13.22;100.00
72438;BME280;60444;43.534;-5.674;2023-04-04T01:46:25;101844.97;;;13.21;100.00
72438;BME280;60444;43.534;-5.674;2023-04-04T01:48:51;101850.00;;;13.30;100.00
72438;BME280;60444;43.534;-5.674;2023-04-04T01:51:17;101833.16;;;13.22;100.00
72438;BME280;60444;43.534;-5.674;2023-04-04T01:53:43;101841.13;;;13.26;100.00
72438;BME280;60444;43.534;-5.674;2023-04-04T01:56:09;101840.91;;;13.31;100.00
72438;BME280;60444;43.534;-5.674;2023-04-04T01:58:35;101814.94;;;13.24;100.00
72438;BME280;60444;43.534;-5.674;2023-04-04T02:01:01;101850.53;;;13.38;100.00
72438;BME280;60444;43.534;-5.674;2023-04-04T02:03:27;101845.31;;;13.33;100.00
72438;BME280;60444;43.534;-5.674;2023-04-04T02:05:52;101843.44;;;13.35;100.00
72438;BME280;60444;43.534;-5.674;2023-04-04T02:08:18;101839.00;;;13.33;100.00
72438;BME280;60444;43.534;-5.674;2023-04-04T02:10:45;101838.47;;;13.25;100.00
72438;BME280;60444;43.534;-5.674;2023-04-04T02:13:10;101848.31;;;13.27;100.00
72438;BME280;60444;43.534;-5.674;2023-04-04T02:15:36;101828.53;;;13.24;100.00
72438;BME280;60444;43.534;-5.674;2023-04-04T02:18:02;101819.88;;;13.14;100.00
72438;BME280;60444;43.534;-5.674;2023-04-04T02:20:27;101838.66;;;13.20;100.00
72438;BME280;60444;43.534;-5.674;2023-04-04T02:22:54;101836.47;;;13.08;100.00
72438;BME280;60444;43.534;-5.674;2023-04-04T02:25:21;101851.50;;;13.17;100.00
72438;BME280;60444;43.534;-5.674;2023-04-04T02:27:46;101844.69;;;13.07;100.00
72438;BME280;60444;43.534;-5.674;2023-04-04T02:30:12;101837.56;;;13.04;100.00
72438;BME280;60444;43.534;-5.674;2023-04-04T02:32:38;101822.75;;;12.90;100.00
72438;BME280;60444;43.534;-5.674;2023-04-04T02:35:04;101839.88;;;12.92;100.00
72438;BME280;60444;43.534;-5.674;2023-04-04T02:37:30;101820.81;;;12.72;100.00
72438;BME280;60444;43.534;-5.674;2023-04-04T02:39:55;101850.91;;;12.87;100.00
72438;BME280;60444;43.534;-5.674;2023-04-04T02:42:21;101851.03;;;12.84;100.00
72438;BME280;60444;43.534;-5.674;2023-04-04T02:44:46;101836.03;;;12.76;100.00
72438;BME280;60444;43.534;-5.674;2023-04-04T02:47:14;101831.44;;;12.56;100.00
72438;BME280;60444;43.534;-5.674;2023-04-04T02:49:40;101863.31;;;12.73;100.00
72438;BME280;60444;43.534;-5.674;2023-04-04T02:52:06;101863.25;;;12.74;100.00
72438;BME280;60444;43.534;-5.674;2023-04-04T02:54:32;101870.50;;;12.74;100.00
72438;BME280;60444;43.534;-5.674;2023-04-04T02:56:58;101861.66;;;12.69;100.00
72438;BME280;60444;43.534;-5.674;2023-04-04T02:59:23;101871.47;;;12.73;100.00
72438;BME280;60444;43.534;-5.674;2023-04-04T03:01:50;101865.81;;;12.77;100.00
72438;BME280;60444;43.534;-5.674;2023-04-04T03:04:15;101859.72;;;12.72;100.00
72438;BME280;60444;43.534;-5.674;2023-04-04T03:06:43;101873.28;;;12.72;100.00
72438;BME280;60444;43.534;-5.674;2023-04-04T03:09:09;101870.63;;;12.71;100.00
72438;BME280;60444;43.534;-5.674;2023-04-04T03:11:35;101857.06;;;12.71;100.00
72438;BME280;60444;43.534;-5.674;2023-04-04T03:14:01;101882.13;;;12.77;100.00
72438;BME280;60444;43.534;-5.674;2023-04-04T03:16:26;101883.84;;;12.80;100.00
72438;BME280;60444;43.534;-5.674;2023-04-04T03:18:54;101851.66;;;12.69;100.00
72438;BME280;60444;43.534;-5.674;2023-04-04T03:21:19;101880.03;;;12.84;100.00
72438;BME280;60444;43.534;-5.674;2023-04-04T03:23:45;101881.88;;;12.83;100.00
72438;BME280;60444;43.534;-5.674;2023-04-04T03:26:10;101858.81;;;12.72;100.00
72438;BME280;60444;43.534;-5.674;2023-04-04T03:28:36;101879.91;;;12.87;100.00
72438;BME280;60444;43.534;-5.674;2023-04-04T03:31:03;101877.38;;;12.82;100.00
72438;BME280;60444;43.534;-5.674;2023-04-04T03:33:29;101869.44;;;12.78;100.00
72438;BME280;60444;43.534;-5.674;2023-04-04T03:35:54;101881.94;;;12.82;100.00
72438;BME280;60444;43.534;-5.674;2023-04-04T03:38:20;101883.69;;;12.83;100.00
72438;BME280;60444;43.534;-5.674;2023-04-04T03:40:46;101888.06;;;12.87;100.00
72438;BME280;60444;43.534;-5.674;2023-04-04T03:43:11;101896.31;;;12.84;100.00
72438;BME280;60444;43.534;-5.674;2023-04-04T03:45:37;101889.06;;;12.84;100.00
72438;BME280;60444;43.534;-5.674;2023-04-04T03:48:02;101886.41;;;12.83;100.00
72438;BME280;60444;43.534;-5.674;2023-04-04T03:50:28;101891.97;;;12.80;100.00
72438;BME280;60444;43.534;-5.674;2023-04-04T03:52:54;101894.56;;;12.83;100.00
72438;BME280;60444;43.534;-5.674;2023-04-04T03:55:22;101904.34;;;12.87;100.00
72438;BME280;60444;43.534;-5.674;2023-04-04T03:57:48;101905.41;;;12.83;100.00
72438;BME280;60444;43.534;-5.674;2023-04-04T04:00:13;101876.09;;;12.69;100.00
72438;BME280;60444;43.534;-5.674;2023-04-04T04:02:40;101905.59;;;12.78;100.00
72438;BME280;60444;43.534;-5.674;2023-04-04T04:05:06;101901.44;;;12.70;100.00
72438;BME280;60444;43.534;-5.674;2023-04-04T04:07:31;101904.81;;;12.76;100.00
72438;BME280;60444;43.534;-5.674;2023-04-04T04:09:57;101906.69;;;12.74;100.00
72438;BME280;60444;43.534;-5.674;2023-04-04T04:12:23;101909.41;;;12.74;100.00
72438;BME280;60444;43.534;-5.674;2023-04-04T04:14:50;101905.88;;;12.72;100.00
72438;BME280;60444;43.534;-5.674;2023-04-04T04:17:16;101917.97;;;12.64;100.00
72438;BME280;60444;43.534;-5.674;2023-04-04T04:19:41;101917.72;;;12.70;100.00
72438;BME280;60444;43.534;-5.674;2023-04-04T04:22:06;101925.16;;;12.65;100.00
72438;BME280;60444;43.534;-5.674;2023-04-04T04:24:32;101909.09;;;12.59;100.00
72438;BME280;60444;43.534;-5.674;2023-04-04T04:26:57;101921.47;;;12.67;100.00
72438;BME280;60444;43.534;-5.674;2023-04-04T04:29:23;101929.97;;;12.58;100.00
72438;BME280;60444;43.534;-5.674;2023-04-04T04:31:48;101922.75;;;12.57;100.00
72438;BME280;60444;43.534;-5.674;2023-04-04T04:34:14;101921.97;;;12.53;100.00
72438;BME280;60444;43.534;-5.674;2023-04-04T04:36:39;101931.59;;;12.62;100.00
72438;BME280;60444;43.534;-5.674;2023-04-04T04:39:05;101935.44;;;12.57;100.00
72438;BME280;60444;43.534;-5.674;2023-04-04T04:41:31;101940.69;;;12.61;100.00
72438;BME280;60444;43.534;-5.674;2023-04-04T04:43:56;101936.09;;;12.63;100.00
72438;BME280;60444;43.534;-5.674;2023-04-04T04:46:21;101914.84;;;12.51;100.00
72438;BME280;60444;43.534;-5.674;2023-04-04T04:48:47;101938.81;;;12.63;100.00
72438;BME280;60444;43.534;-5.674;2023-04-04T04:51:12;101937.91;;;12.63;100.00
72438;BME280;60444;43.534;-5.674;2023-04-04T04:53:39;101953.06;;;12.68;100.00
72438;BME280;60444;43.534;-5.674;2023-04-04T04:56:05;101948.53;;;12.69;100.00
72438;BME280;60444;43.534;-5.674;2023-04-04T04:58:33;101948.47;;;12.70;100.00
72438;BME280;60444;43.534;-5.674;2023-04-04T05:00:59;101927.28;;;12.57;100.00
72438;BME280;60444;43.534;-5.674;2023-04-04T05:03:25;101952.06;;;12.71;100.00
72438;BME280;60444;43.534;-5.674;2023-04-04T05:05:51;101957.53;;;12.69;100.00
72438;BME280;60444;43.534;-5.674;2023-04-04T05:08:17;101966.88;;;12.62;100.00
72438;BME280;60444;43.534;-5.674;2023-04-04T05:10:43;101958.84;;;12.59;100.00
72438;BME280;60444;43.534;-5.674;2023-04-04T05:13:08;101982.88;;;12.70;100.00
72438;BME280;60444;43.534;-5.674;2023-04-04T05:15:34;101978.63;;;12.63;100.00
72438;BME280;60444;43.534;-5.674;2023-04-04T05:18:00;101977.78;;;12.61;100.00
72438;BME280;60444;43.534;-5.674;2023-04-04T05:20:25;101977.56;;;12.67;100.00
72438;BME280;60444;43.534;-5.674;2023-04-04T05:22:51;101987.38;;;12.71;100.00
72438;BME280;60444;43.534;-5.674;2023-04-04T05:25:17;101990.09;;;12.71;100.00
72438;BME280;60444;43.534;-5.674;2023-04-04T05:27:46;101982.16;;;12.65;100.00
72438;BME280;60444;43.534;-5.674;2023-04-04T05:30:12;101969.78;;;12.58;100.00
72438;BME280;60444;43.534;-5.674;2023-04-04T05:32:38;101986.41;;;12.72;100.00
72438;BME280;60444;43.534;-5.674;2023-04-04T05:35:04;101994.50;;;12.73;100.00
72438;BME280;60444;43.534;-5.674;2023-04-04T05:37:29;101974.16;;;12.62;100.00
72438;BME280;60444;43.534;-5.674;2023-04-04T05:39:55;101976.88;;;12.62;100.00
72438;BME280;60444;43.534;-5.674;2023-04-04T05:42:20;101984.81;;;12.66;100.00
72438;BME280;60444;43.534;-5.674;2023-04-04T05:44:46;102005.34;;;12.73;100.00
72438;BME280;60444;43.534;-5.674;2023-04-04T05:47:11;102001.72;;;12.74;100.00
72438;BME280;60444;43.534;-5.674;2023-04-04T05:49:37;102008.00;;;12.75;100.00
72438;BME280;60444;43.534;-5.674;2023-04-04T05:52:02;101995.44;;;12.72;100.00
72438;BME280;60444;43.534;-5.674;2023-04-04T05:54:30;102000.94;;;12.71;100.00
72438;BME280;60444;43.534;-5.674;2023-04-04T05:56:55;102012.72;;;12.70;100.00
72438;BME280;60444;43.534;-5.674;2023-04-04T05:59:21;102012.84;;;12.67;100.00
72438;BME280;60444;43.534;-5.674;2023-04-04T06:01:46;102026.31;;;12.70;100.00
72438;BME280;60444;43.534;-5.674;2023-04-04T06:04:12;102023.16;;;12.57;100.00
72438;BME280;60444;43.534;-5.674;2023-04-04T06:06:38;102018.69;;;12.56;100.00
72438;BME280;60444;43.534;-5.674;2023-04-04T06:09:03;102002.50;;;12.53;100.00
72438;BME280;60444;43.534;-5.674;2023-04-04T06:11:29;102010.84;;;12.48;100.00
72438;BME280;60444;43.534;-5.674;2023-04-04T06:13:54;102035.06;;;12.55;100.00
72438;BME280;60444;43.534;-5.674;2023-04-04T06:16:20;102039.50;;;12.56;100.00
72438;BME280;60444;43.534;-5.674;2023-04-04T06:18:46;102046.84;;;12.53;100.00
72438;BME280;60444;43.534;-5.674;2023-04-04T06:21:12;102043.41;;;12.48;100.00
72438;BME280;60444;43.534;-5.674;2023-04-04T06:23:38;102022.09;;;12.38;100.00
72438;BME280;60444;43.534;-5.674;2023-04-04T06:26:04;102037.97;;;12.48;100.00
72438;BME280;60444;43.534;-5.674;2023-04-04T06:28:32;102053.22;;;12.52;100.00
72438;BME280;60444;43.534;-5.674;2023-04-04T06:30:57;102051.44;;;12.51;100.00
72438;BME280;60444;43.534;-5.674;2023-04-04T06:33:23;102054.13;;;12.51;100.00
72438;BME280;60444;43.534;-5.674;2023-04-04T06:35:49;102049.66;;;12.50;100.00
72438;BME280;60444;43.534;-5.674;2023-04-04T06:38:14;102052.25;;;12.53;100.00
72438;BME280;60444;43.534;-5.674;2023-04-04T06:40:40;102058.84;;;12.46;100.00
72438;BME280;60444;43.534;-5.674;2023-04-04T06:43:05;102061.78;;;12.40;100.00
72438;BME280;60444;43.534;-5.674;2023-04-04T06:45:32;102065.94;;;12.50;100.00
72438;BME280;60444;43.534;-5.674;2023-04-04T06:48:00;102072.38;;;12.48;100.00
72438;BME280;60444;43.534;-5.674;2023-04-04T06:50:28;102065.19;;;12.47;100.00
72438;BME280;60444;43.534;-5.674;2023-04-04T06:52:54;102078.50;;;12.53;100.00
72438;BME280;60444;43.534;-5.674;2023-04-04T06:55:21;102058.78;;;12.48;100.00
72438;BME280;60444;43.534;-5.674;2023-04-04T06:57:47;102073.06;;;12.53;100.00
72438;BME280;60444;43.534;-5.674;2023-04-04T07:00:13;102088.16;;;12.62;100.00
72438;BME280;60444;43.534;-5.674;2023-04-04T07:02:38;102089.78;;;12.66;100.00
72438;BME280;60444;43.534;-5.674;2023-04-04T07:05:04;102067.50;;;12.58;100.00
72438;BME280;60444;43.534;-5.674;2023-04-04T07:07:30;102076.53;;;12.58;100.00
72438;BME280;60444;43.534;-5.674;2023-04-04T07:09:56;102104.94;;;12.73;100.00
72438;BME280;60444;43.534;-5.674;2023-04-04T07:12:21;102105.75;;;12.75;100.00
72438;BME280;60444;43.534;-5.674;2023-04-04T07:14:47;102106.69;;;12.74;100.00
72438;BME280;60444;43.534;-5.674;2023-04-04T07:17:12;102098.56;;;12.74;100.00
72438;BME280;60444;43.534;-5.674;2023-04-04T07:19:38;102098.44;;;12.77;100.00
72438;BME280;60444;43.534;-5.674;2023-04-04T07:22:03;102107.19;;;12.85;100.00
72438;BME280;60444;43.534;-5.674;2023-04-04T07:24:29;102102.75;;;12.82;100.00
72438;BME280;60444;43.534;-5.674;2023-04-04T07:26:55;102107.06;;;12.88;100.00
72438;BME280;60444;43.534;-5.674;2023-04-04T07:29:21;102113.38;;;12.88;100.00
72438;BME280;60444;43.534;-5.674;2023-04-04T07:31:46;102113.19;;;12.93;100.00
72438;BME280;60444;43.534;-5.674;2023-04-04T07:34:12;102108.84;;;12.89;100.00
72438;BME280;60444;43.534;-5.674;2023-04-04T07:36:38;102090.75;;;12.88;100.00
72438;BME280;60444;43.534;-5.674;2023-04-04T07:39:03;102106.56;;;13.01;100.00
72438;BME280;60444;43.534;-5.674;2023-04-04T07:41:29;102106.59;;;13.00;100.00
72438;BME280;60444;43.534;-5.674;2023-04-04T07:43:54;102094.31;;;12.90;100.00
72438;BME280;60444;43.534;-5.674;2023-04-04T07:46:20;102087.75;;;12.95;100.00
72438;BME280;60444;43.534;-5.674;2023-04-04T07:48:46;102093.84;;;13.02;100.00
72438;BME280;60444;43.534;-5.674;2023-04-04T07:51:12;102090.53;;;12.94;100.00
72438;BME280;60444;43.534;-5.674;2023-04-04T07:53:38;102085.81;;;12.99;100.00
72438;BME280;60444;43.534;-5.674;2023-04-04T07:56:03;102084.91;;;12.98;100.00
72438;BME280;60444;43.534;-5.674;2023-04-04T07:58:35;102104.28;;;13.14;100.00
72438;BME280;60444;43.534;-5.674;2023-04-04T08:01:01;102102.31;;;13.17;100.00
72438;BME280;60444;43.534;-5.674;2023-04-04T08:03:28;102112.13;;;13.21;100.00
72438;BME280;60444;43.534;-5.674;2023-04-04T08:05:54;102102.19;;;13.20;100.00
72438;BME280;60444;43.534;-5.674;2023-04-04T08:08:19;102111.03;;;13.25;100.00
72438;BME280;60444;43.534;-5.674;2023-04-04T08:10:45;102111.03;;;13.25;100.00
72438;BME280;60444;43.534;-5.674;2023-04-04T08:13:11;102108.22;;;13.28;100.00
72438;BME280;60444;43.534;-5.674;2023-04-04T08:15:37;102083.25;;;13.19;100.00
72438;BME280;60444;43.534;-5.674;2023-04-04T08:18:03;102119.59;;;13.38;100.00
72438;BME280;60444;43.534;-5.674;2023-04-04T08:20:29;102107.97;;;13.34;100.00
72438;BME280;60444;43.534;-5.674;2023-04-04T08:22:55;102115.94;;;13.39;100.00
72438;BME280;60444;43.534;-5.674;2023-04-04T08:25:21;102103.44;;;13.35;100.00
72438;BME280;60444;43.534;-5.674;2023-04-04T08:27:47;102115.59;;;13.48;100.00
72438;BME280;60444;43.534;-5.674;2023-04-04T08:30:13;102097.84;;;13.38;100.00
72438;BME280;60444;43.534;-5.674;2023-04-04T08:32:40;102113.94;;;13.44;100.00
72438;BME280;60444;43.534;-5.674;2023-04-04T08:35:07;102131.13;;;13.44;100.00
72438;BME280;60444;43.534;-5.674;2023-04-04T08:37:33;102128.34;;;13.46;100.00
72438;BME280;60444;43.534;-5.674;2023-04-04T08:40:01;102124.59;;;13.48;100.00
72438;BME280;60444;43.534;-5.674;2023-04-04T08:42:31;102120.06;;;13.49;100.00
72438;BME280;60444;43.534;-5.674;2023-04-04T08:44:59;102132.00;;;13.45;100.00
72438;BME280;60444;43.534;-5.674;2023-04-04T08:47:27;102122.44;;;13.35;100.00
72438;BME280;60444;43.534;-5.674;2023-04-04T08:49:59;102144.19;;;13.35;100.00
72438;BME280;60444;43.534;-5.674;2023-04-04T08:52:27;102137.09;;;13.31;100.00
72438;BME280;60444;43.534;-5.674;2023-04-04T08:54:54;102141.69;;;13.29;100.00
72438;BME280;60444;43.534;-5.674;2023-04-04T08:57:20;102129.72;;;13.34;100.00
72438;BME280;60444;43.534;-5.674;2023-04-04T08:59:46;102133.44;;;13.32;100.00
72438;BME280;60444;43.534;-5.674;2023-04-04T09:03:03;102146.56;;;13.44;100.00
72438;BME280;60444;43.534;-5.674;2023-04-04T09:05:29;102144.19;;;13.35;100.00
72438;BME280;60444;43.534;-5.674;2023-04-04T09:07:57;102137.34;;;13.25;100.00
72438;BME280;60444;43.534;-5.674;2023-04-04T09:10:22;102142.16;;;13.40;100.00
72438;BME280;60444;43.534;-5.674;2023-04-04T09:12:50;102161.19;;;13.40;100.00
72438;BME280;60444;43.534;-5.674;2023-04-04T09:15:15;102152.13;;;13.41;100.00
72438;BME280;60444;43.534;-5.674;2023-04-04T09:17:41;102165.72;;;13.41;100.00
72438;BME280;60444;43.534;-5.674;2023-04-04T09:20:39;102169.25;;;13.43;100.00
72438;BME280;60444;43.534;-5.674;2023-04-04T09:23:07;102146.84;;;13.36;100.00
72438;BME280;60444;43.534;-5.674;2023-04-04T09:25:34;102162.78;;;13.45;100.00
72438;BME280;60444;43.534;-5.674;2023-04-04T09:28:01;102169.28;;;13.41;100.00
72438;BME280;60444;43.534;-5.674;2023-04-04T09:30:29;102162.16;;;13.39;100.00
72438;BME280;60444;43.534;-5.674;2023-04-04T09:32:55;102178.03;;;13.49;100.00
72438;BME280;60444;43.534;-5.674;2023-04-04T09:35:21;102163.47;;;13.52;100.00
72438;BME280;60444;43.534;-5.674;2023-04-04T09:37:47;102153.75;;;13.45;100.00
72438;BME280;60444;43.534;-5.674;2023-04-04T09:40:13;102156.16;;;13.52;100.00
72438;BME280;60444;43.534;-5.674;2023-04-04T09:42:42;102170.41;;;13.59;100.00
72438;BME280;60444;43.534;-5.674;2023-04-04T09:45:07;102173.84;;;13.64;100.00
72438;BME280;60444;43.534;-5.674;2023-04-04T09:47:39;102164.91;;;13.61;100.00
72438;BME280;60444;43.534;-5.674;2023-04-04T09:50:07;102149.66;;;13.57;100.00
72438;BME280;60444;43.534;-5.674;2023-04-04T09:52:33;102159.88;;;13.73;100.00
72438;BME280;60444;43.534;-5.674;2023-04-04T09:55:03;102175.00;;;13.80;100.00
72438;BME280;60444;43.534;-5.674;2023-04-04T09:57:29;102174.28;;;13.75;100.00
72438;BME280;60444;43.534;-5.674;2023-04-04T09:59:59;102175.16;;;13.76;100.00
72438;BME280;60444;43.534;-5.674;2023-04-04T10:02:26;102163.16;;;13.81;100.00
72438;BME280;60444;43.534;-5.674;2023-04-04T10:04:53;102163.88;;;13.86;100.00
72438;BME280;60444;43.534;-5.674;2023-04-04T10:07:19;102165.44;;;13.92;100.00
72438;BME280;60444;43.534;-5.674;2023-04-04T10:09:47;102149.75;;;13.98;100.00
72438;BME280;60444;43.534;-5.674;2023-04-04T10:12:15;102156.31;;;13.93;100.00
72438;BME280;60444;43.534;-5.674;2023-04-04T10:14:41;102168.72;;;14.00;100.00
72438;BME280;60444;43.534;-5.674;2023-04-04T10:17:07;102144.81;;;13.86;100.00
72438;BME280;60444;43.534;-5.674;2023-04-04T10:19:38;102171.38;;;14.01;100.00
72438;BME280;60444;43.534;-5.674;2023-04-04T10:22:07;102176.81;;;14.01;100.00
72438;BME280;60444;43.534;-5.674;2023-04-04T10:24:34;102172.19;;;14.03;100.00
72438;BME280;60444;43.534;-5.674;2023-04-04T10:27:00;102160.78;;;13.95;100.00
72438;BME280;60444;43.534;-5.674;2023-04-04T10:29:26;102170.44;;;14.02;100.00
72438;BME280;60444;43.534;-5.674;2023-04-04T10:32:04;102156.09;;;13.99;100.00
72438;BME280;60444;43.534;-5.674;2023-04-04T10:34:52;102153.38;;;13.99;100.00
72438;BME280;60444;43.534;-5.674;2023-04-04T10:37:25;102146.19;;;13.96;100.00
72438;BME280;60444;43.534;-5.674;2023-04-04T10:40:15;102160.69;;;13.75;100.00
72438;BME280;60444;43.534;-5.674;2023-04-04T10:42:44;102187.88;;;13.75;100.00
72438;BME280;60444;43.534;-5.674;2023-04-04T10:45:12;102142.03;;;13.66;100.00
72438;BME280;60444;43.534;-5.674;2023-04-04T10:47:39;102168.91;;;13.74;100.00
72438;BME280;60444;43.534;-5.674;2023-04-04T10:50:06;102156.25;;;13.73;100.00
72438;BME280;60444;43.534;-5.674;2023-04-04T10:52:35;102145.44;;;13.71;100.00
72438;BME280;60444;43.534;-5.674;2023-04-04T10:55:08;102178.69;;;13.78;100.00
72438;BME280;60444;43.534;-5.674;2023-04-04T10:57:49;102168.03;;;13.73;100.00
72438;BME280;60444;43.534;-5.674;2023-04-04T11:00:20;102152.59;;;13.52;100.00
72438;BME280;60444;43.534;-5.674;2023-04-04T11:02:59;102173.13;;;13.59;100.00
72438;BME280;60444;43.534;-5.674;2023-04-04T11:08:23;102162.81;;;13.67;100.00
72438;BME280;60444;43.534;-5.674;2023-04-04T11:10:51;102144.44;;;13.52;100.00
72438;BME280;60444;43.534;-5.674;2023-04-04T11:13:31;102165.97;;;13.57;100.00
72438;BME280;60444;43.534;-5.674;2023-04-04T11:16:01;102162.13;;;13.62;100.00
72438;BME280;60444;43.534;-5.674;2023-04-04T11:21:00;102140.16;;;13.68;100.00
72438;BME280;60444;43.534;-5.674;2023-04-04T11:23:26;102133.03;;;13.64;100.00
72438;BME280;60444;43.534;-5.674;2023-04-04T11:25:53;102144.69;;;13.68;100.00
72438;BME280;60444;43.534;-5.674;2023-04-04T11:34:01;102144.31;;;13.77;100.00
72438;BME280;60444;43.534;-5.674;2023-04-04T11:41:53;102139.38;;;13.86;100.00
72438;BME280;60444;43.534;-5.674;2023-04-04T11:44:21;102129.44;;;13.85;100.00
72438;BME280;60444;43.534;-5.674;2023-04-04T11:46:48;102133.38;;;13.78;100.00
72438;BME280;60444;43.534;-5.674;2023-04-04T11:49:19;102132.00;;;13.90;100.00
72438;BME280;60444;43.534;-5.674;2023-04-04T11:51:44;102123.91;;;13.88;100.00
72438;BME280;60444;43.534;-5.674;2023-04-04T11:54:15;102122.78;;;13.92;100.00
72438;BME280;60444;43.534;-5.674;2023-04-04T11:56:42;102129.44;;;13.85;100.00
72438;BME280;60444;43.534;-5.674;2023-04-04T11:59:20;102134.31;;;13.77;100.00
72438;BME280;60444;43.534;-5.674;2023-04-04T12:01:47;102132.69;;;13.73;100.00
72438;BME280;60444;43.534;-5.674;2023-04-04T12:04:17;102093.94;;;13.67;100.00
72438;BME280;60444;43.534;-5.674;2023-04-04T12:06:48;102098.38;;;13.69;100.00
72438;BME280;60444;43.534;-5.674;2023-04-04T12:09:15;102127.09;;;13.76;100.00
72438;BME280;60444;43.534;-5.674;2023-04-04T12:11:42;102101.63;;;13.79;100.00
72438;BME280;60444;43.534;-5.674;2023-04-04T12:14:19;102102.25;;;13.64;100.00
72438;BME280;60444;43.534;-5.674;2023-04-04T12:16:50;102111.16;;;13.67;100.00
72438;BME280;60444;43.534;-5.674;2023-04-04T12:19:17;102094.59;;;13.73;100.00
72438;BME280;60444;43.534;-5.674;2023-04-04T12:21:43;102111.09;;;13.69;100.00
72438;BME280;60444;43.534;-5.674;2023-04-04T12:24:10;102127.09;;;13.76;100.00
72438;BME280;60444;43.534;-5.674;2023-04-04T12:26:40;102105.34;;;13.76;100.00
72438;BME280;60444;43.534;-5.674;2023-04-04T12:29:08;102116.88;;;13.83;100.00
72438;BME280;60444;43.534;-5.674;2023-04-04T12:31:35;102120.34;;;13.86;100.00
72438;BME280;60444;43.534;-5.674;2023-04-04T12:34:02;102111.28;;;13.86;100.00
72438;BME280;60444;43.534;-5.674;2023-04-04T12:36:29;102114.69;;;13.91;100.00
72438;BME280;60444;43.534;-5.674;2023-04-04T12:39:06;102118.44;;;13.88;100.00
72438;BME280;60444;43.534;-5.674;2023-04-04T12:41:33;102122.94;;;13.89;100.00
72438;BME280;60444;43.534;-5.674;2023-04-04T12:44:05;102119.75;;;14.00;100.00
72438;BME280;60444;43.534;-5.674;2023-04-04T12:46:37;102119.50;;;14.06;100.00
72438;BME280;60444;43.534;-5.674;2023-04-04T12:49:10;102118.75;;;14.02;100.00